Terminal Aerodrome Forecast
Issued by NWS Lake Charles, LA

Home | Current Version | Previous Version | Text Only | Print | Product List | Glossary On
Versions: 1 2 3 4 5 6 7 8 9 10 11 12 13 14 15 16
000
FTUS44 KLCH 011300 AAB
TAFLFT
TAF AMD
KLFT 011357Z 0114/0212 19004KT 5SM BR SCT006 OVC080
     FM011500 20012KT P6SM -RA SCT009 OVC023
     FM020000 24008KT P6SM -RA OVC015
     FM020300 34012KT P6SM -RA OVC008
     FM020600 35018KT P6SM OVC050=

USA.gov is the U.S. government's official web portal to all federal, state and local government web resources and services.